KORS

Orcas Island Airport

Eastsound, Washington, USA
METAR KORS 181315Z AUTO 17009KT 6SM -RA OVC015 10/08 A2947 RMK AO2
Observed Flight Rules
Dec-18 @ 13:15 UTC (16 minutes ago) Marginal Visual Flight Rules
Wind Visibility Clouds Conditions
170° at 9 knots 6 miles
  • Overcast at 1,500' AGL
  • Light Rain
Temperatures Readings
Current 10°C / 50°F
Dewpoint 8°C / 46°F
Humidity 88%
Altimeter 29.47" Hg
Pressure 998 hPa
Elevation 9
METAR KORS 181315Z AUTO 17009KT 6SM -RA OVC015 10/08 A2947 RMK AO2
Observed Flight Rules
Dec-18 @ 13:15 UTC
(16 minutes ago)
MVFR
Wind Visibility
170° at 9 knots 6 miles
Clouds
  • Overcast at 1,500' AGL
Conditions
  • Light Rain
Temperature Dewpoint
10°C / 50°F 8°C / 46°F
Humidity Altimeter Pressure
88% 29.47" Hg 998 hPa